sensor_id;sensor_type;location;lat;lon;timestamp;temperature;humidity
13898;DHT22;7019;50.766;4.474;2022-08-20T00:02:23;18.30;99.90
13898;DHT22;7019;50.766;4.474;2022-08-20T00:04:50;18.20;99.90
13898;DHT22;7019;50.766;4.474;2022-08-20T00:07:17;18.00;99.90
13898;DHT22;7019;50.766;4.474;2022-08-20T00:09:44;17.90;99.90
13898;DHT22;7019;50.766;4.474;2022-08-20T00:14:54;17.70;99.90
13898;DHT22;7019;50.766;4.474;2022-08-20T00:17:22;17.70;99.90
13898;DHT22;7019;50.766;4.474;2022-08-20T00:19:49;17.60;99.90
13898;DHT22;7019;50.766;4.474;2022-08-20T00:22:16;17.50;99.90
13898;DHT22;7019;50.766;4.474;2022-08-20T00:24:44;17.50;99.90
13898;DHT22;7019;50.766;4.474;2022-08-20T00:27:11;17.60;99.90
13898;DHT22;7019;50.766;4.474;2022-08-20T00:29:38;17.60;99.90
13898;DHT22;7019;50.766;4.474;2022-08-20T00:32:05;17.60;99.90
13898;DHT22;7019;50.766;4.474;2022-08-20T00:34:34;17.50;99.90
13898;DHT22;7019;50.766;4.474;2022-08-20T00:37:01;17.50;99.90
13898;DHT22;7019;50.766;4.474;2022-08-20T00:39:28;17.50;99.90
13898;DHT22;7019;50.766;4.474;2022-08-20T00:41:55;17.40;99.90
13898;DHT22;7019;50.766;4.474;2022-08-20T00:44:22;17.40;99.90
13898;DHT22;7019;50.766;4.474;2022-08-20T00:46:50;17.40;99.90
13898;DHT22;7019;50.766;4.474;2022-08-20T00:49:21;17.40;99.90
13898;DHT22;7019;50.766;4.474;2022-08-20T00:51:53;17.40;99.90
13898;DHT22;7019;50.766;4.474;2022-08-20T00:54:28;17.40;99.90
13898;DHT22;7019;50.766;4.474;2022-08-20T00:57:00;17.40;99.90
13898;DHT22;7019;50.766;4.474;2022-08-20T00:59:30;17.40;99.90
13898;DHT22;7019;50.766;4.474;2022-08-20T01:02:00;17.30;99.90
13898;DHT22;7019;50.766;4.474;2022-08-20T01:04:31;17.20;99.90
13898;DHT22;7019;50.766;4.474;2022-08-20T01:07:01;17.10;99.90
13898;DHT22;7019;50.766;4.474;2022-08-20T01:09:30;17.00;99.90
13898;DHT22;7019;50.766;4.474;2022-08-20T01:11:57;17.00;99.90
13898;DHT22;7019;50.766;4.474;2022-08-20T01:14:24;16.90;99.90
13898;DHT22;7019;50.766;4.474;2022-08-20T01:17:05;16.90;99.90
13898;DHT22;7019;50.766;4.474;2022-08-20T01:19:37;16.80;99.90
13898;DHT22;7019;50.766;4.474;2022-08-20T01:22:07;16.80;99.90
13898;DHT22;7019;50.766;4.474;2022-08-20T01:24:51;16.80;99.90
13898;DHT22;7019;50.766;4.474;2022-08-20T01:27:22;16.80;99.90
13898;DHT22;7019;50.766;4.474;2022-08-20T01:29:50;16.80;99.90
13898;DHT22;7019;50.766;4.474;2022-08-20T01:32:17;16.70;99.90
13898;DHT22;7019;50.766;4.474;2022-08-20T01:34:45;16.70;99.90
13898;DHT22;7019;50.766;4.474;2022-08-20T01:37:12;16.60;99.90
13898;DHT22;7019;50.766;4.474;2022-08-20T01:39:39;16.60;99.90
13898;DHT22;7019;50.766;4.474;2022-08-20T01:42:09;16.50;99.90
13898;DHT22;7019;50.766;4.474;2022-08-20T01:44:40;16.40;99.90
13898;DHT22;7019;50.766;4.474;2022-08-20T01:47:12;16.40;99.90
13898;DHT22;7019;50.766;4.474;2022-08-20T01:49:42;16.40;99.90
13898;DHT22;7019;50.766;4.474;2022-08-20T01:52:14;16.40;99.90
13898;DHT22;7019;50.766;4.474;2022-08-20T01:54:45;16.40;99.90
13898;DHT22;7019;50.766;4.474;2022-08-20T01:57:15;16.40;99.90
13898;DHT22;7019;50.766;4.474;2022-08-20T01:59:44;16.40;99.90
13898;DHT22;7019;50.766;4.474;2022-08-20T02:02:11;16.40;99.90
13898;DHT22;7019;50.766;4.474;2022-08-20T02:04:38;16.40;99.90
13898;DHT22;7019;50.766;4.474;2022-08-20T02:07:07;16.40;99.90
13898;DHT22;7019;50.766;4.474;2022-08-20T02:09:38;16.50;99.90
13898;DHT22;7019;50.766;4.474;2022-08-20T02:12:07;16.50;99.90
13898;DHT22;7019;50.766;4.474;2022-08-20T02:14:35;16.50;99.90
13898;DHT22;7019;50.766;4.474;2022-08-20T02:17:06;16.50;99.90
13898;DHT22;7019;50.766;4.474;2022-08-20T02:19:37;16.40;99.90
13898;DHT22;7019;50.766;4.474;2022-08-20T02:22:10;16.40;99.90
13898;DHT22;7019;50.766;4.474;2022-08-20T02:24:40;16.40;99.90
13898;DHT22;7019;50.766;4.474;2022-08-20T02:27:07;16.30;99.90
13898;DHT22;7019;50.766;4.474;2022-08-20T02:29:35;16.30;99.90
13898;DHT22;7019;50.766;4.474;2022-08-20T02:32:02;16.20;99.90
13898;DHT22;7019;50.766;4.474;2022-08-20T02:34:32;16.10;99.90
13898;DHT22;7019;50.766;4.474;2022-08-20T02:37:00;16.00;99.90
13898;DHT22;7019;50.766;4.474;2022-08-20T02:39:28;16.00;99.90
13898;DHT22;7019;50.766;4.474;2022-08-20T02:41:55;16.00;99.90
13898;DHT22;7019;50.766;4.474;2022-08-20T02:44:22;16.00;99.90
13898;DHT22;7019;50.766;4.474;2022-08-20T02:46:49;15.90;99.90
13898;DHT22;7019;50.766;4.474;2022-08-20T02:49:17;15.90;99.90
13898;DHT22;7019;50.766;4.474;2022-08-20T02:51:46;15.90;99.90
13898;DHT22;7019;50.766;4.474;2022-08-20T02:54:14;15.90;99.90
13898;DHT22;7019;50.766;4.474;2022-08-20T02:56:42;15.80;99.90
13898;DHT22;7019;50.766;4.474;2022-08-20T02:59:09;15.80;99.90
13898;DHT22;7019;50.766;4.474;2022-08-20T03:01:36;15.80;99.90
13898;DHT22;7019;50.766;4.474;2022-08-20T03:04:03;15.70;99.90
13898;DHT22;7019;50.766;4.474;2022-08-20T03:06:31;15.70;99.90
13898;DHT22;7019;50.766;4.474;2022-08-20T03:08:59;15.80;99.90
13898;DHT22;7019;50.766;4.474;2022-08-20T03:11:27;15.80;99.90
13898;DHT22;7019;50.766;4.474;2022-08-20T03:13:54;15.80;99.90
13898;DHT22;7019;50.766;4.474;2022-08-20T03:16:21;15.70;99.90
13898;DHT22;7019;50.766;4.474;2022-08-20T03:18:48;15.60;99.90
13898;DHT22;7019;50.766;4.474;2022-08-20T03:21:16;15.60;99.90
13898;DHT22;7019;50.766;4.474;2022-08-20T03:23:43;15.60;99.90
13898;DHT22;7019;50.766;4.474;2022-08-20T03:26:12;15.50;99.90
13898;DHT22;7019;50.766;4.474;2022-08-20T03:28:41;15.50;99.90
13898;DHT22;7019;50.766;4.474;2022-08-20T03:31:09;15.50;99.90
13898;DHT22;7019;50.766;4.474;2022-08-20T03:33:36;15.40;99.90
13898;DHT22;7019;50.766;4.474;2022-08-20T03:36:05;15.50;99.90
13898;DHT22;7019;50.766;4.474;2022-08-20T03:38:32;15.50;99.90
13898;DHT22;7019;50.766;4.474;2022-08-20T03:41:01;15.50;99.90
13898;DHT22;7019;50.766;4.474;2022-08-20T03:43:30;15.40;99.90
13898;DHT22;7019;50.766;4.474;2022-08-20T03:45:58;15.40;99.90
13898;DHT22;7019;50.766;4.474;2022-08-20T03:48:25;15.40;99.90
13898;DHT22;7019;50.766;4.474;2022-08-20T03:50:52;15.40;99.90
13898;DHT22;7019;50.766;4.474;2022-08-20T03:53:20;15.30;99.90
13898;DHT22;7019;50.766;4.474;2022-08-20T03:55:48;15.40;99.90
13898;DHT22;7019;50.766;4.474;2022-08-20T03:58:19;15.40;99.90
13898;DHT22;7019;50.766;4.474;2022-08-20T04:00:49;15.50;99.90
13898;DHT22;7019;50.766;4.474;2022-08-20T04:03:17;15.60;99.90
13898;DHT22;7019;50.766;4.474;2022-08-20T04:05:45;15.60;99.90
13898;DHT22;7019;50.766;4.474;2022-08-20T04:08:15;15.60;99.90
13898;DHT22;7019;50.766;4.474;2022-08-20T04:10:44;15.60;99.90
13898;DHT22;7019;50.766;4.474;2022-08-20T04:13:12;15.60;99.90
13898;DHT22;7019;50.766;4.474;2022-08-20T04:15:40;15.50;99.90
13898;DHT22;7019;50.766;4.474;2022-08-20T04:18:09;15.50;99.90
13898;DHT22;7019;50.766;4.474;2022-08-20T04:20:39;15.50;99.90
13898;DHT22;7019;50.766;4.474;2022-08-20T04:23:07;15.50;99.90
13898;DHT22;7019;50.766;4.474;2022-08-20T04:25:35;15.50;99.90
13898;DHT22;7019;50.766;4.474;2022-08-20T04:28:07;15.50;99.90
13898;DHT22;7019;50.766;4.474;2022-08-20T04:30:35;15.40;99.90
13898;DHT22;7019;50.766;4.474;2022-08-20T04:33:02;15.30;99.90
13898;DHT22;7019;50.766;4.474;2022-08-20T04:35:31;15.20;99.90
13898;DHT22;7019;50.766;4.474;2022-08-20T04:37:59;15.30;99.90
13898;DHT22;7019;50.766;4.474;2022-08-20T04:40:27;15.40;99.90
13898;DHT22;7019;50.766;4.474;2022-08-20T04:43:12;15.30;99.90
13898;DHT22;7019;50.766;4.474;2022-08-20T04:45:40;15.40;99.90
13898;DHT22;7019;50.766;4.474;2022-08-20T04:48:07;15.40;99.90
13898;DHT22;7019;50.766;4.474;2022-08-20T04:50:37;15.30;99.90
13898;DHT22;7019;50.766;4.474;2022-08-20T04:53:07;15.30;99.90
13898;DHT22;7019;50.766;4.474;2022-08-20T04:55:36;15.20;99.90
13898;DHT22;7019;50.766;4.474;2022-08-20T04:58:08;15.10;99.90
13898;DHT22;7019;50.766;4.474;2022-08-20T05:00:36;15.10;99.90
13898;DHT22;7019;50.766;4.474;2022-08-20T05:03:04;15.00;99.90
13898;DHT22;7019;50.766;4.474;2022-08-20T05:05:31;15.00;99.90
13898;DHT22;7019;50.766;4.474;2022-08-20T05:08:01;15.00;99.90
13898;DHT22;7019;50.766;4.474;2022-08-20T05:10:29;15.00;99.90
13898;DHT22;7019;50.766;4.474;2022-08-20T05:12:56;15.10;99.90
13898;DHT22;7019;50.766;4.474;2022-08-20T05:15:23;15.10;99.90
13898;DHT22;7019;50.766;4.474;2022-08-20T05:17:55;15.10;99.90
13898;DHT22;7019;50.766;4.474;2022-08-20T05:20:25;15.20;99.90
13898;DHT22;7019;50.766;4.474;2022-08-20T05:22:56;15.10;99.90
13898;DHT22;7019;50.766;4.474;2022-08-20T05:25:25;15.20;99.90
13898;DHT22;7019;50.766;4.474;2022-08-20T05:27:56;15.30;99.90
13898;DHT22;7019;50.766;4.474;2022-08-20T05:30:25;15.30;99.90
13898;DHT22;7019;50.766;4.474;2022-08-20T05:32:53;15.30;99.90
13898;DHT22;7019;50.766;4.474;2022-08-20T05:35:20;15.30;99.90
13898;DHT22;7019;50.766;4.474;2022-08-20T05:37:47;15.30;99.90
13898;DHT22;7019;50.766;4.474;2022-08-20T05:40:14;15.30;99.90
13898;DHT22;7019;50.766;4.474;2022-08-20T05:42:43;15.30;99.90
13898;DHT22;7019;50.766;4.474;2022-08-20T05:45:10;15.40;99.90
13898;DHT22;7019;50.766;4.474;2022-08-20T05:47:38;15.40;99.90
13898;DHT22;7019;50.766;4.474;2022-08-20T05:50:07;15.40;99.90
13898;DHT22;7019;50.766;4.474;2022-08-20T05:52:35;15.50;99.90
13898;DHT22;7019;50.766;4.474;2022-08-20T05:55:03;15.50;99.90
13898;DHT22;7019;50.766;4.474;2022-08-20T05:57:31;15.60;99.90
13898;DHT22;7019;50.766;4.474;2022-08-20T06:00:00;15.60;99.90
13898;DHT22;7019;50.766;4.474;2022-08-20T06:02:28;15.60;99.90
13898;DHT22;7019;50.766;4.474;2022-08-20T06:05:12;15.60;99.90
13898;DHT22;7019;50.766;4.474;2022-08-20T06:07:40;15.60;99.90
13898;DHT22;7019;50.766;4.474;2022-08-20T06:10:08;15.70;99.90
13898;DHT22;7019;50.766;4.474;2022-08-20T06:12:36;15.70;99.90
13898;DHT22;7019;50.766;4.474;2022-08-20T06:15:05;15.80;99.90
13898;DHT22;7019;50.766;4.474;2022-08-20T06:17:32;15.80;99.90
13898;DHT22;7019;50.766;4.474;2022-08-20T06:20:02;16.00;99.90
13898;DHT22;7019;50.766;4.474;2022-08-20T06:22:32;16.40;99.90
13898;DHT22;7019;50.766;4.474;2022-08-20T06:24:59;16.90;99.90
13898;DHT22;7019;50.766;4.474;2022-08-20T06:27:27;17.50;99.90
13898;DHT22;7019;50.766;4.474;2022-08-20T06:29:54;18.10;99.90
13898;DHT22;7019;50.766;4.474;2022-08-20T06:32:23;18.30;99.90
13898;DHT22;7019;50.766;4.474;2022-08-20T06:34:51;18.50;99.90
13898;DHT22;7019;50.766;4.474;2022-08-20T06:37:21;18.50;99.90
13898;DHT22;7019;50.766;4.474;2022-08-20T06:39:50;18.60;99.90
13898;DHT22;7019;50.766;4.474;2022-08-20T06:42:18;18.60;99.90
13898;DHT22;7019;50.766;4.474;2022-08-20T06:44:46;18.60;99.90
13898;DHT22;7019;50.766;4.474;2022-08-20T06:47:14;18.70;99.90
13898;DHT22;7019;50.766;4.474;2022-08-20T06:49:44;18.70;99.90
13898;DHT22;7019;50.766;4.474;2022-08-20T06:52:12;18.80;99.90
13898;DHT22;7019;50.766;4.474;2022-08-20T06:54:40;18.80;99.90
13898;DHT22;7019;50.766;4.474;2022-08-20T06:57:08;18.70;99.90
13898;DHT22;7019;50.766;4.474;2022-08-20T06:59:35;18.70;99.90
13898;DHT22;7019;50.766;4.474;2022-08-20T07:02:02;18.60;99.90
13898;DHT22;7019;50.766;4.474;2022-08-20T07:04:30;18.60;99.90
13898;DHT22;7019;50.766;4.474;2022-08-20T07:06:58;18.60;99.90
13898;DHT22;7019;50.766;4.474;2022-08-20T07:09:26;18.70;99.90
13898;DHT22;7019;50.766;4.474;2022-08-20T07:11:53;18.70;99.90
13898;DHT22;7019;50.766;4.474;2022-08-20T07:14:20;18.70;99.90
13898;DHT22;7019;50.766;4.474;2022-08-20T07:16:48;18.90;99.90
13898;DHT22;7019;50.766;4.474;2022-08-20T07:19:15;19.10;99.90
13898;DHT22;7019;50.766;4.474;2022-08-20T07:21:42;19.40;99.90
13898;DHT22;7019;50.766;4.474;2022-08-20T07:24:10;19.60;99.90
13898;DHT22;7019;50.766;4.474;2022-08-20T07:26:37;19.70;99.90
13898;DHT22;7019;50.766;4.474;2022-08-20T07:29:05;20.10;99.90
13898;DHT22;7019;50.766;4.474;2022-08-20T07:31:32;20.50;99.90
13898;DHT22;7019;50.766;4.474;2022-08-20T07:34:15;20.90;99.90
13898;DHT22;7019;50.766;4.474;2022-08-20T07:36:42;21.50;99.90
13898;DHT22;7019;50.766;4.474;2022-08-20T07:39:11;22.10;99.90
13898;DHT22;7019;50.766;4.474;2022-08-20T07:41:38;22.70;99.90
13898;DHT22;7019;50.766;4.474;2022-08-20T07:44:05;23.20;99.90
13898;DHT22;7019;50.766;4.474;2022-08-20T07:46:32;23.60;99.90
13898;DHT22;7019;50.766;4.474;2022-08-20T07:48:59;24.00;99.90
13898;DHT22;7019;50.766;4.474;2022-08-20T07:51:26;24.40;99.90
13898;DHT22;7019;50.766;4.474;2022-08-20T07:53:54;24.70;99.90
13898;DHT22;7019;50.766;4.474;2022-08-20T07:56:24;24.60;99.90
13898;DHT22;7019;50.766;4.474;2022-08-20T07:58:53;25.00;99.90
13898;DHT22;7019;50.766;4.474;2022-08-20T08:01:22;25.50;99.90
13898;DHT22;7019;50.766;4.474;2022-08-20T08:03:50;25.70;99.90
13898;DHT22;7019;50.766;4.474;2022-08-20T08:06:18;26.20;99.90
13898;DHT22;7019;50.766;4.474;2022-08-20T08:08:46;26.10;99.90
13898;DHT22;7019;50.766;4.474;2022-08-20T08:11:14;26.30;99.90
13898;DHT22;7019;50.766;4.474;2022-08-20T08:13:43;26.60;99.90
13898;DHT22;7019;50.766;4.474;2022-08-20T08:16:10;26.80;99.90
13898;DHT22;7019;50.766;4.474;2022-08-20T08:18:42;26.90;99.90
13898;DHT22;7019;50.766;4.474;2022-08-20T08:21:11;26.80;99.90
13898;DHT22;7019;50.766;4.474;2022-08-20T08:23:39;27.00;99.90
13898;DHT22;7019;50.766;4.474;2022-08-20T08:26:09;27.50;99.90
13898;DHT22;7019;50.766;4.474;2022-08-20T08:28:37;28.00;99.90
13898;DHT22;7019;50.766;4.474;2022-08-20T08:31:06;28.10;99.90
13898;DHT22;7019;50.766;4.474;2022-08-20T08:33:33;28.10;99.90
13898;DHT22;7019;50.766;4.474;2022-08-20T08:36:02;28.30;99.90
13898;DHT22;7019;50.766;4.474;2022-08-20T08:38:30;28.20;99.90
13898;DHT22;7019;50.766;4.474;2022-08-20T08:41:10;28.40;99.90
13898;DHT22;7019;50.766;4.474;2022-08-20T08:43:39;28.40;99.90
13898;DHT22;7019;50.766;4.474;2022-08-20T08:46:10;28.80;99.90
13898;DHT22;7019;50.766;4.474;2022-08-20T08:48:41;29.00;99.90
13898;DHT22;7019;50.766;4.474;2022-08-20T08:51:11;28.80;99.90
13898;DHT22;7019;50.766;4.474;2022-08-20T08:53:42;28.50;99.90
13898;DHT22;7019;50.766;4.474;2022-08-20T08:56:13;28.50;99.90
13898;DHT22;7019;50.766;4.474;2022-08-20T08:58:41;28.30;99.90
13898;DHT22;7019;50.766;4.474;2022-08-20T09:01:11;28.10;99.90
13898;DHT22;7019;50.766;4.474;2022-08-20T09:03:40;28.30;99.90
13898;DHT22;7019;50.766;4.474;2022-08-20T09:06:14;28.50;99.90
13898;DHT22;7019;50.766;4.474;2022-08-20T09:08:45;28.70;99.90
13898;DHT22;7019;50.766;4.474;2022-08-20T09:11:15;28.90;99.90
13898;DHT22;7019;50.766;4.474;2022-08-20T09:13:42;28.90;99.90
13898;DHT22;7019;50.766;4.474;2022-08-20T09:16:11;29.00;99.90
13898;DHT22;7019;50.766;4.474;2022-08-20T09:18:39;29.40;99.90
13898;DHT22;7019;50.766;4.474;2022-08-20T09:21:07;29.20;99.90
13898;DHT22;7019;50.766;4.474;2022-08-20T09:23:34;29.50;99.90
13898;DHT22;7019;50.766;4.474;2022-08-20T09:26:01;29.30;99.90
13898;DHT22;7019;50.766;4.474;2022-08-20T09:28:28;29.60;99.90
13898;DHT22;7019;50.766;4.474;2022-08-20T09:30:56;29.70;99.90
13898;DHT22;7019;50.766;4.474;2022-08-20T09:33:24;29.20;99.90
13898;DHT22;7019;50.766;4.474;2022-08-20T09:35:51;28.30;99.90
13898;DHT22;7019;50.766;4.474;2022-08-20T09:38:18;27.20;99.90
13898;DHT22;7019;50.766;4.474;2022-08-20T09:40:46;27.20;99.90
13898;DHT22;7019;50.766;4.474;2022-08-20T09:43:13;27.40;99.90
13898;DHT22;7019;50.766;4.474;2022-08-20T09:45:40;27.90;99.90
13898;DHT22;7019;50.766;4.474;2022-08-20T09:48:07;28.60;99.90
13898;DHT22;7019;50.766;4.474;2022-08-20T09:50:35;29.00;99.90
13898;DHT22;7019;50.766;4.474;2022-08-20T09:53:04;28.90;99.90
13898;DHT22;7019;50.766;4.474;2022-08-20T09:55:35;29.00;99.50
13898;DHT22;7019;50.766;4.474;2022-08-20T09:58:05;28.70;98.80
13898;DHT22;7019;50.766;4.474;2022-08-20T10:00:33;28.60;99.90
13898;DHT22;7019;50.766;4.474;2022-08-20T10:03:00;28.70;97.60
13898;DHT22;7019;50.766;4.474;2022-08-20T10:05:28;29.20;99.40
13898;DHT22;7019;50.766;4.474;2022-08-20T10:07:57;29.70;98.10
13898;DHT22;7019;50.766;4.474;2022-08-20T10:10:25;29.60;96.40
13898;DHT22;7019;50.766;4.474;2022-08-20T10:12:52;29.00;97.90
13898;DHT22;7019;50.766;4.474;2022-08-20T10:15:19;28.40;98.30
13898;DHT22;7019;50.766;4.474;2022-08-20T10:17:46;27.20;98.20
13898;DHT22;7019;50.766;4.474;2022-08-20T10:20:13;26.40;99.30
13898;DHT22;7019;50.766;4.474;2022-08-20T10:22:42;25.40;98.80
13898;DHT22;7019;50.766;4.474;2022-08-20T10:25:11;24.80;98.90
13898;DHT22;7019;50.766;4.474;2022-08-20T10:27:38;24.50;99.90
13898;DHT22;7019;50.766;4.474;2022-08-20T10:30:06;25.00;99.90
13898;DHT22;7019;50.766;4.474;2022-08-20T10:32:33;25.70;99.90
13898;DHT22;7019;50.766;4.474;2022-08-20T10:35:01;26.50;99.90
13898;DHT22;7019;50.766;4.474;2022-08-20T10:37:28;27.10;98.70
13898;DHT22;7019;50.766;4.474;2022-08-20T10:39:55;27.60;98.50
13898;DHT22;7019;50.766;4.474;2022-08-20T10:42:24;27.90;97.40
13898;DHT22;7019;50.766;4.474;2022-08-20T10:44:51;27.70;98.00
13898;DHT22;7019;50.766;4.474;2022-08-20T10:47:21;27.40;98.20
13898;DHT22;7019;50.766;4.474;2022-08-20T10:49:50;26.60;98.50
13898;DHT22;7019;50.766;4.474;2022-08-20T10:52:18;25.80;99.70
13898;DHT22;7019;50.766;4.474;2022-08-20T10:54:46;25.30;99.60
13898;DHT22;7019;50.766;4.474;2022-08-20T10:57:15;25.70;99.60
13898;DHT22;7019;50.766;4.474;2022-08-20T10:59:45;26.20;99.40
13898;DHT22;7019;50.766;4.474;2022-08-20T11:02:13;26.70;98.10
13898;DHT22;7019;50.766;4.474;2022-08-20T11:04:40;27.20;97.70
13898;DHT22;7019;50.766;4.474;2022-08-20T11:07:12;27.90;96.20
13898;DHT22;7019;50.766;4.474;2022-08-20T11:09:40;28.00;96.90
13898;DHT22;7019;50.766;4.474;2022-08-20T11:12:07;27.60;96.30
13898;DHT22;7019;50.766;4.474;2022-08-20T11:14:35;27.40;97.80
13898;DHT22;7019;50.766;4.474;2022-08-20T11:17:04;27.60;98.80
13898;DHT22;7019;50.766;4.474;2022-08-20T11:19:31;27.70;96.80
13898;DHT22;7019;50.766;4.474;2022-08-20T11:21:58;27.50;96.70
13898;DHT22;7019;50.766;4.474;2022-08-20T11:24:25;27.30;96.60
13898;DHT22;7019;50.766;4.474;2022-08-20T11:26:53;27.00;96.80
13898;DHT22;7019;50.766;4.474;2022-08-20T11:29:20;26.60;97.40
13898;DHT22;7019;50.766;4.474;2022-08-20T11:31:49;26.70;97.50
13898;DHT22;7019;50.766;4.474;2022-08-20T11:34:17;27.10;98.50
13898;DHT22;7019;50.766;4.474;2022-08-20T11:36:58;27.40;97.60
13898;DHT22;7019;50.766;4.474;2022-08-20T11:39:26;27.50;96.60
13898;DHT22;7019;50.766;4.474;2022-08-20T11:41:53;27.10;97.50
13898;DHT22;7019;50.766;4.474;2022-08-20T11:44:20;26.60;96.50
13898;DHT22;7019;50.766;4.474;2022-08-20T11:46:47;26.50;97.00
13898;DHT22;7019;50.766;4.474;2022-08-20T11:49:15;26.50;97.70
13898;DHT22;7019;50.766;4.474;2022-08-20T11:51:43;26.70;99.30
13898;DHT22;7019;50.766;4.474;2022-08-20T11:54:10;27.10;97.20
13898;DHT22;7019;50.766;4.474;2022-08-20T11:56:37;27.50;95.70
13898;DHT22;7019;50.766;4.474;2022-08-20T11:59:04;27.90;95.00
13898;DHT22;7019;50.766;4.474;2022-08-20T12:01:31;27.90;95.60
13898;DHT22;7019;50.766;4.474;2022-08-20T12:03:58;27.70;95.60
13898;DHT22;7019;50.766;4.474;2022-08-20T12:06:25;27.70;96.20
13898;DHT22;7019;50.766;4.474;2022-08-20T12:08:54;27.50;95.40
13898;DHT22;7019;50.766;4.474;2022-08-20T12:11:21;27.10;95.50
13898;DHT22;7019;50.766;4.474;2022-08-20T12:13:48;26.60;96.40
13898;DHT22;7019;50.766;4.474;2022-08-20T12:16:15;26.30;96.60
13898;DHT22;7019;50.766;4.474;2022-08-20T12:18:43;26.80;97.00
13898;DHT22;7019;50.766;4.474;2022-08-20T12:21:10;27.10;95.50
13898;DHT22;7019;50.766;4.474;2022-08-20T12:23:37;27.60;95.40
13898;DHT22;7019;50.766;4.474;2022-08-20T12:26:05;27.80;94.90
13898;DHT22;7019;50.766;4.474;2022-08-20T12:28:33;27.70;94.80
13898;DHT22;7019;50.766;4.474;2022-08-20T12:31:00;27.60;95.20
13898;DHT22;7019;50.766;4.474;2022-08-20T12:33:27;27.70;95.30
13898;DHT22;7019;50.766;4.474;2022-08-20T12:35:54;27.50;95.50
13898;DHT22;7019;50.766;4.474;2022-08-20T12:38:22;27.30;94.80
13898;DHT22;7019;50.766;4.474;2022-08-20T12:40:49;27.00;94.80
13898;DHT22;7019;50.766;4.474;2022-08-20T12:43:18;27.00;94.50
13898;DHT22;7019;50.766;4.474;2022-08-20T12:45:45;27.10;95.80
13898;DHT22;7019;50.766;4.474;2022-08-20T12:48:12;27.40;94.30
13898;DHT22;7019;50.766;4.474;2022-08-20T12:50:41;27.50;94.80
13898;DHT22;7019;50.766;4.474;2022-08-20T12:53:10;27.10;94.70
13898;DHT22;7019;50.766;4.474;2022-08-20T12:55:37;27.10;95.20
13898;DHT22;7019;50.766;4.474;2022-08-20T12:58:07;27.20;95.70
13898;DHT22;7019;50.766;4.474;2022-08-20T13:00:38;27.20;94.50
13898;DHT22;7019;50.766;4.474;2022-08-20T13:03:10;27.40;94.50
13898;DHT22;7019;50.766;4.474;2022-08-20T13:05:38;27.30;94.00
13898;DHT22;7019;50.766;4.474;2022-08-20T13:08:07;27.50;94.20
13898;DHT22;7019;50.766;4.474;2022-08-20T13:10:36;27.70;94.10
13898;DHT22;7019;50.766;4.474;2022-08-20T13:13:09;27.70;93.50
13898;DHT22;7019;50.766;4.474;2022-08-20T13:15:37;27.90;92.70
13898;DHT22;7019;50.766;4.474;2022-08-20T13:18:05;27.90;93.30
13898;DHT22;7019;50.766;4.474;2022-08-20T13:20:33;27.80;93.00
13898;DHT22;7019;50.766;4.474;2022-08-20T13:23:00;27.50;92.80
13898;DHT22;7019;50.766;4.474;2022-08-20T13:25:28;27.40;93.10
13898;DHT22;7019;50.766;4.474;2022-08-20T13:27:56;27.60;94.10
13898;DHT22;7019;50.766;4.474;2022-08-20T13:30:24;27.70;92.50
13898;DHT22;7019;50.766;4.474;2022-08-20T13:32:52;27.70;92.60
13898;DHT22;7019;50.766;4.474;2022-08-20T13:35:20;27.70;92.50
13898;DHT22;7019;50.766;4.474;2022-08-20T13:37:48;27.90;93.80
13898;DHT22;7019;50.766;4.474;2022-08-20T13:40:16;27.90;93.70
13898;DHT22;7019;50.766;4.474;2022-08-20T13:42:44;28.10;92.90
13898;DHT22;7019;50.766;4.474;2022-08-20T13:45:10;28.30;92.90
13898;DHT22;7019;50.766;4.474;2022-08-20T13:47:39;28.40;92.70
13898;DHT22;7019;50.766;4.474;2022-08-20T13:50:10;28.20;91.70
13898;DHT22;7019;50.766;4.474;2022-08-20T13:52:38;27.90;93.00
13898;DHT22;7019;50.766;4.474;2022-08-20T13:55:09;27.40;92.50
13898;DHT22;7019;50.766;4.474;2022-08-20T13:57:37;27.10;92.70
13898;DHT22;7019;50.766;4.474;2022-08-20T14:00:07;27.10;92.80
13898;DHT22;7019;50.766;4.474;2022-08-20T14:02:36;26.80;93.00
13898;DHT22;7019;50.766;4.474;2022-08-20T14:05:03;26.60;94.50
13898;DHT22;7019;50.766;4.474;2022-08-20T14:07:32;26.50;94.20
13898;DHT22;7019;50.766;4.474;2022-08-20T14:10:03;26.60;93.60
13898;DHT22;7019;50.766;4.474;2022-08-20T14:12:31;26.90;93.30
13898;DHT22;7019;50.766;4.474;2022-08-20T14:14:58;27.10;92.30
13898;DHT22;7019;50.766;4.474;2022-08-20T14:17:27;27.20;92.10
13898;DHT22;7019;50.766;4.474;2022-08-20T14:19:56;27.40;91.80
13898;DHT22;7019;50.766;4.474;2022-08-20T14:22:23;27.40;93.10
13898;DHT22;7019;50.766;4.474;2022-08-20T14:24:52;27.00;93.00
13898;DHT22;7019;50.766;4.474;2022-08-20T14:27:21;26.60;93.70
13898;DHT22;7019;50.766;4.474;2022-08-20T14:29:49;26.50;94.30
13898;DHT22;7019;50.766;4.474;2022-08-20T14:32:17;26.60;92.90
13898;DHT22;7019;50.766;4.474;2022-08-20T14:34:45;26.70;92.80
13898;DHT22;7019;50.766;4.474;2022-08-20T14:37:13;26.90;93.70
13898;DHT22;7019;50.766;4.474;2022-08-20T14:39:42;26.80;93.50
13898;DHT22;7019;50.766;4.474;2022-08-20T14:42:10;26.90;92.50
13898;DHT22;7019;50.766;4.474;2022-08-20T14:44:38;27.10;93.50
13898;DHT22;7019;50.766;4.474;2022-08-20T14:47:13;27.10;92.50
13898;DHT22;7019;50.766;4.474;2022-08-20T14:49:41;27.10;92.90
13898;DHT22;7019;50.766;4.474;2022-08-20T14:52:08;27.10;93.30
13898;DHT22;7019;50.766;4.474;2022-08-20T14:54:36;27.10;93.70
13898;DHT22;7019;50.766;4.474;2022-08-20T14:57:04;27.00;93.60
13898;DHT22;7019;50.766;4.474;2022-08-20T14:59:33;26.70;92.70
13898;DHT22;7019;50.766;4.474;2022-08-20T15:02:02;26.30;93.30
13898;DHT22;7019;50.766;4.474;2022-08-20T15:04:29;25.80;94.00
13898;DHT22;7019;50.766;4.474;2022-08-20T15:06:56;25.60;95.10
13898;DHT22;7019;50.766;4.474;2022-08-20T15:09:23;25.60;95.30
13898;DHT22;7019;50.766;4.474;2022-08-20T15:11:50;25.50;94.50
13898;DHT22;7019;50.766;4.474;2022-08-20T15:14:17;25.30;94.50
13898;DHT22;7019;50.766;4.474;2022-08-20T15:16:45;25.10;95.90
13898;DHT22;7019;50.766;4.474;2022-08-20T15:19:12;25.20;96.20
13898;DHT22;7019;50.766;4.474;2022-08-20T15:21:39;25.40;95.30
13898;DHT22;7019;50.766;4.474;2022-08-20T15:24:07;25.70;94.90
13898;DHT22;7019;50.766;4.474;2022-08-20T15:26:34;25.90;94.90
13898;DHT22;7019;50.766;4.474;2022-08-20T15:29:01;25.90;94.10
13898;DHT22;7019;50.766;4.474;2022-08-20T15:31:28;25.50;94.60
13898;DHT22;7019;50.766;4.474;2022-08-20T15:33:57;25.40;95.40
13898;DHT22;7019;50.766;4.474;2022-08-20T15:36:24;25.40;94.50
13898;DHT22;7019;50.766;4.474;2022-08-20T15:38:53;25.20;95.10
13898;DHT22;7019;50.766;4.474;2022-08-20T15:41:20;25.00;95.00
13898;DHT22;7019;50.766;4.474;2022-08-20T15:43:47;24.80;94.80
13898;DHT22;7019;50.766;4.474;2022-08-20T15:46:14;24.70;95.60
13898;DHT22;7019;50.766;4.474;2022-08-20T15:48:43;24.80;96.40
13898;DHT22;7019;50.766;4.474;2022-08-20T15:51:22;25.00;96.50
13898;DHT22;7019;50.766;4.474;2022-08-20T15:53:58;25.20;96.10
13898;DHT22;7019;50.766;4.474;2022-08-20T15:56:40;25.40;96.40